createdAt,value
2018-12-31T00:01:09.616Z,8.70
2018-12-31T00:03:36.677Z,8.18
2018-12-31T00:06:03.724Z,9.45
2018-12-31T00:08:30.754Z,8.40
2018-12-31T00:10:57.807Z,9.00
2018-12-31T00:13:24.833Z,8.60
2018-12-31T00:15:51.898Z,7.17
2018-12-31T00:18:19.036Z,7.70
2018-12-31T00:20:46.094Z,8.23
2018-12-31T00:23:13.212Z,7.47
2018-12-31T00:25:40.281Z,7.78
2018-12-31T00:28:07.369Z,6.40
2018-12-31T00:30:34.412Z,6.90
2018-12-31T00:33:01.445Z,6.72
2018-12-31T00:35:28.530Z,5.72
2018-12-31T00:37:55.571Z,7.42
2018-12-31T00:40:22.609Z,6.55
2018-12-31T00:42:49.674Z,7.22
2018-12-31T00:45:16.749Z,6.42
2018-12-31T00:47:43.817Z,6.65
2018-12-31T00:50:10.870Z,5.97
2018-12-31T00:52:37.899Z,5.95
2018-12-31T00:55:04.959Z,6.00
2018-12-31T00:57:32.004Z,7.55
2018-12-31T00:59:59.043Z,8.00
2018-12-31T01:02:26.101Z,6.60
2018-12-31T01:04:53.168Z,6.05
2018-12-31T01:07:20.221Z,6.10
2018-12-31T01:09:47.266Z,7.25
2018-12-31T01:12:14.340Z,5.85
2018-12-31T01:14:41.384Z,5.92
2018-12-31T01:17:08.436Z,6.58
2018-12-31T01:19:35.472Z,5.60
2018-12-31T01:22:02.541Z,5.47
2018-12-31T01:24:29.587Z,4.70
2018-12-31T01:26:56.616Z,4.67
2018-12-31T01:29:23.668Z,4.55
2018-12-31T01:31:50.704Z,5.03
2018-12-31T01:34:17.792Z,5.17
2018-12-31T01:36:44.800Z,5.55
2018-12-31T01:39:11.857Z,5.55
2018-12-31T01:41:38.890Z,5.97
2018-12-31T01:44:05.951Z,6.00
2018-12-31T01:46:32.984Z,7.20
2018-12-31T01:49:00.028Z,7.80
2018-12-31T01:51:27.085Z,7.85
2018-12-31T01:53:54.121Z,8.68
2018-12-31T01:56:21.157Z,8.10
2018-12-31T01:58:48.203Z,9.43
2018-12-31T02:01:15.253Z,10.18
2018-12-31T02:03:42.282Z,8.75
2018-12-31T02:06:09.329Z,8.20
2018-12-31T02:08:36.370Z,10.10
2018-12-31T02:11:03.421Z,10.63
2018-12-31T02:13:30.462Z,10.23
2018-12-31T02:15:57.498Z,10.05
2018-12-31T02:18:24.570Z,9.15
2018-12-31T02:20:51.635Z,10.70
2018-12-31T02:23:18.928Z,11.90
2018-12-31T02:25:46.064Z,10.98
2018-12-31T02:28:13.109Z,9.48
2018-12-31T02:30:40.156Z,10.82
2018-12-31T02:33:07.214Z,10.13
2018-12-31T02:35:34.245Z,10.38
2018-12-31T02:38:01.294Z,10.25
2018-12-31T02:40:28.342Z,10.03
2018-12-31T02:42:55.388Z,10.32
2018-12-31T02:45:22.439Z,11.20
2018-12-31T02:47:49.466Z,10.10
2018-12-31T02:50:16.512Z,11.20
2018-12-31T02:52:43.542Z,10.38
2018-12-31T02:55:10.594Z,8.68
2018-12-31T02:57:37.634Z,10.70
2018-12-31T03:00:04.693Z,9.35
2018-12-31T03:02:31.727Z,10.50
2018-12-31T03:04:58.765Z,10.35
2018-12-31T03:07:25.802Z,10.55
2018-12-31T03:09:52.824Z,10.23
2018-12-31T03:12:19.853Z,9.88
2018-12-31T03:14:46.891Z,10.05
2018-12-31T03:17:13.926Z,10.40
2018-12-31T03:19:40.960Z,9.68
2018-12-31T03:22:08.005Z,9.40
2018-12-31T03:24:35.044Z,11.33
2018-12-31T03:27:02.078Z,9.88
2018-12-31T03:29:29.110Z,10.15
2018-12-31T03:31:56.159Z,10.90
2018-12-31T03:34:23.198Z,10.63
2018-12-31T03:36:50.260Z,10.08
2018-12-31T03:39:17.300Z,10.10
2018-12-31T03:41:44.357Z,10.13
2018-12-31T03:44:11.414Z,11.35
2018-12-31T03:46:38.448Z,9.33
2018-12-31T03:49:05.499Z,10.32
2018-12-31T03:51:32.547Z,10.00
2018-12-31T03:53:59.603Z,10.60
2018-12-31T03:56:26.627Z,10.05
2018-12-31T03:58:53.698Z,11.00
2018-12-31T04:01:20.745Z,10.72
2018-12-31T04:03:47.768Z,10.08
2018-12-31T04:06:14.800Z,10.68
2018-12-31T04:08:41.854Z,10.75
2018-12-31T04:11:08.882Z,10.00
2018-12-31T04:13:35.931Z,10.13
2018-12-31T04:16:02.982Z,12.10
2018-12-31T04:18:30.002Z,11.65
2018-12-31T04:20:57.043Z,12.00
2018-12-31T04:23:24.083Z,11.35
2018-12-31T04:25:51.123Z,11.00
2018-12-31T04:28:18.139Z,12.25
2018-12-31T04:30:45.175Z,11.63
2018-12-31T04:33:12.199Z,11.03
2018-12-31T04:35:39.229Z,9.88
2018-12-31T04:38:06.272Z,9.73
2018-12-31T04:40:33.312Z,9.70
2018-12-31T04:43:00.369Z,11.75
2018-12-31T04:45:27.429Z,8.70
2018-12-31T04:47:54.461Z,10.65
2018-12-31T04:50:21.491Z,10.43
2018-12-31T04:52:48.539Z,10.00
2018-12-31T04:55:15.583Z,10.38
2018-12-31T04:57:42.629Z,10.10
2018-12-31T05:00:09.656Z,9.60
2018-12-31T05:02:36.681Z,9.23
2018-12-31T05:05:03.909Z,8.90
2018-12-31T05:07:30.959Z,10.53
2018-12-31T05:09:57.995Z,9.98
2018-12-31T05:12:25.030Z,10.80
2018-12-31T05:14:52.069Z,10.63
2018-12-31T05:17:19.136Z,9.90
2018-12-31T05:19:46.210Z,9.33
2018-12-31T05:22:13.261Z,9.50
2018-12-31T05:24:40.313Z,8.65
2018-12-31T05:27:07.371Z,9.13
2018-12-31T05:29:34.393Z,9.73
2018-12-31T05:32:01.424Z,9.23
2018-12-31T05:34:28.471Z,10.13
2018-12-31T05:36:55.501Z,9.05
2018-12-31T05:39:22.544Z,9.55
2018-12-31T05:41:49.600Z,8.55
2018-12-31T05:44:17.629Z,9.83
2018-12-31T05:46:44.682Z,9.05
2018-12-31T05:49:11.839Z,8.35
2018-12-31T05:51:38.871Z,7.80
2018-12-31T05:54:05.901Z,9.15
2018-12-31T05:56:32.927Z,8.45
2018-12-31T05:58:59.952Z,8.70
2018-12-31T06:01:26.999Z,8.68
2018-12-31T06:03:54.049Z,9.03
2018-12-31T06:06:21.083Z,7.33
2018-12-31T06:08:48.118Z,6.70
2018-12-31T06:11:15.165Z,8.03
2018-12-31T06:13:42.211Z,7.65
2018-12-31T06:16:09.248Z,7.72
2018-12-31T06:18:36.293Z,7.28
2018-12-31T06:21:03.343Z,7.17
2018-12-31T06:23:30.373Z,7.85
2018-12-31T06:25:57.420Z,7.70
2018-12-31T06:28:24.476Z,7.85
2018-12-31T06:30:51.496Z,7.15
2018-12-31T06:33:18.555Z,6.70
2018-12-31T06:35:45.597Z,5.03
2018-12-31T06:38:12.612Z,4.92
2018-12-31T06:40:39.679Z,4.87
2018-12-31T06:43:06.726Z,4.95
2018-12-31T06:45:33.778Z,4.20
2018-12-31T06:48:00.803Z,4.50
2018-12-31T06:50:27.834Z,5.15
2018-12-31T06:52:54.864Z,4.75
2018-12-31T06:55:21.916Z,4.17
2018-12-31T06:57:48.963Z,4.10
2018-12-31T07:00:16.011Z,4.90
2018-12-31T07:02:43.055Z,4.00
2018-12-31T07:05:10.091Z,3.77
2018-12-31T07:07:37.161Z,4.37
2018-12-31T07:10:04.806Z,4.60
2018-12-31T07:12:31.843Z,4.25
2018-12-31T07:14:58.873Z,4.20
2018-12-31T07:17:25.903Z,3.80
2018-12-31T07:19:52.944Z,4.92
2018-12-31T07:22:19.971Z,5.60
2018-12-31T07:24:47.029Z,4.50
2018-12-31T07:27:14.062Z,5.45
2018-12-31T07:29:41.105Z,4.60
2018-12-31T07:32:08.147Z,5.50
2018-12-31T07:34:35.216Z,5.12
2018-12-31T07:37:02.273Z,4.65
2018-12-31T07:39:29.303Z,4.97
2018-12-31T07:41:56.349Z,4.55
2018-12-31T07:44:23.377Z,5.50
2018-12-31T07:46:50.432Z,4.78
2018-12-31T07:49:17.493Z,5.60
2018-12-31T07:51:44.534Z,5.78
2018-12-31T07:54:11.571Z,5.80
2018-12-31T07:56:38.595Z,5.15
2018-12-31T07:59:05.622Z,5.15
2018-12-31T08:01:32.686Z,5.00
2018-12-31T08:03:59.733Z,5.40
2018-12-31T08:06:26.776Z,4.53
2018-12-31T08:08:53.814Z,4.90
2018-12-31T08:11:20.862Z,5.25
2018-12-31T08:13:47.892Z,5.30
2018-12-31T08:16:14.930Z,5.05
2018-12-31T08:18:41.974Z,4.45
2018-12-31T08:21:09.024Z,4.25
2018-12-31T08:23:36.089Z,5.60
2018-12-31T08:26:03.131Z,5.20
2018-12-31T08:28:30.194Z,5.50
2018-12-31T08:30:57.254Z,5.05
2018-12-31T08:33:24.314Z,5.47
2018-12-31T08:35:51.376Z,6.40
2018-12-31T08:38:18.433Z,4.45
2018-12-31T08:40:45.468Z,5.30
2018-12-31T08:43:12.506Z,5.45
2018-12-31T08:45:39.579Z,6.17
2018-12-31T08:48:06.641Z,4.95
2018-12-31T08:50:33.674Z,4.95
2018-12-31T08:53:00.725Z,5.10
2018-12-31T08:55:27.772Z,5.50
2018-12-31T08:57:54.824Z,4.85
2018-12-31T09:00:26.216Z,4.92
2018-12-31T09:02:57.158Z,4.10
2018-12-31T09:05:25.034Z,4.35
2018-12-31T09:07:52.086Z,4.95
2018-12-31T09:10:19.134Z,4.70
2018-12-31T09:12:46.168Z,4.10
2018-12-31T09:15:14.710Z,4.53
2018-12-31T09:17:41.877Z,4.62
2018-12-31T09:20:08.954Z,5.08
2018-12-31T09:22:36.054Z,5.35
2018-12-31T09:25:03.130Z,3.92
2018-12-31T09:27:30.151Z,4.47
2018-12-31T09:29:57.201Z,4.83
2018-12-31T09:32:24.240Z,4.05
2018-12-31T09:34:51.281Z,4.55
2018-12-31T09:37:18.320Z,4.00
2018-12-31T09:39:45.355Z,4.97
2018-12-31T09:42:12.401Z,4.00
2018-12-31T09:44:39.501Z,3.35
2018-12-31T09:47:06.586Z,4.28
2018-12-31T09:49:33.650Z,3.55
2018-12-31T09:52:00.696Z,4.35
2018-12-31T09:54:27.739Z,4.50
2018-12-31T09:56:54.803Z,4.50
2018-12-31T09:59:21.853Z,4.30
2018-12-31T10:01:48.990Z,3.65
2018-12-31T10:04:16.069Z,4.20
2018-12-31T10:06:43.122Z,4.45
2018-12-31T10:09:11.988Z,4.47
2018-12-31T10:11:39.075Z,3.72
2018-12-31T10:14:06.116Z,4.42
2018-12-31T10:16:33.220Z,5.92
2018-12-31T10:19:00.279Z,5.85
2018-12-31T10:21:27.339Z,5.33
2018-12-31T10:23:54.391Z,8.20
2018-12-31T10:26:21.451Z,6.92
2018-12-31T10:28:48.539Z,6.00
2018-12-31T10:31:15.596Z,7.40
2018-12-31T10:33:42.656Z,6.10
2018-12-31T10:36:09.684Z,7.28
2018-12-31T10:38:36.773Z,5.67
2018-12-31T10:41:03.947Z,6.15
2018-12-31T10:43:31.045Z,4.62
2018-12-31T10:45:58.104Z,4.95
2018-12-31T10:48:25.146Z,5.70
2018-12-31T10:50:52.265Z,6.55
2018-12-31T10:53:19.326Z,5.60
2018-12-31T10:55:46.404Z,5.80
2018-12-31T10:58:13.466Z,5.20
2018-12-31T11:00:40.502Z,8.55
2018-12-31T11:03:07.556Z,8.25
2018-12-31T11:05:34.617Z,13.48
2018-12-31T11:08:01.705Z,4.75
2018-12-31T11:10:29.163Z,2.98
2018-12-31T11:12:56.214Z,4.83
2018-12-31T11:15:23.266Z,3.83
2018-12-31T11:17:50.319Z,4.20
2018-12-31T11:20:17.372Z,3.20
2018-12-31T11:22:44.413Z,3.77
2018-12-31T11:25:11.491Z,3.92
2018-12-31T11:27:38.537Z,5.00
2018-12-31T11:30:06.425Z,2.95
2018-12-31T11:32:33.463Z,4.05
2018-12-31T11:35:00.546Z,3.58
2018-12-31T11:37:34.404Z,2.92
2018-12-31T11:39:56.547Z,2.75
2018-12-31T11:42:23.633Z,4.28
2018-12-31T11:44:50.716Z,3.40
2018-12-31T11:47:17.805Z,3.50
2018-12-31T11:49:44.867Z,4.65
2018-12-31T11:52:11.941Z,4.97
2018-12-31T11:54:39.373Z,7.20
2018-12-31T11:57:06.453Z,6.05
2018-12-31T11:59:33.482Z,6.00
2018-12-31T12:02:00.544Z,6.33
2018-12-31T12:04:27.595Z,6.65
2018-12-31T12:06:54.636Z,9.85
2018-12-31T12:09:21.767Z,6.00
2018-12-31T12:11:48.846Z,5.78
2018-12-31T12:14:15.934Z,5.55
2018-12-31T12:16:42.985Z,6.00
2018-12-31T12:19:10.098Z,5.67
2018-12-31T12:21:37.223Z,4.72
2018-12-31T12:24:04.329Z,4.92
2018-12-31T12:26:31.426Z,3.67
2018-12-31T12:28:58.557Z,4.12
2018-12-31T12:31:25.956Z,4.45
2018-12-31T12:33:53.080Z,4.17
2018-12-31T12:36:20.208Z,4.90
2018-12-31T12:38:47.320Z,8.48
2018-12-31T12:41:14.451Z,6.22
2018-12-31T12:43:41.545Z,6.03
2018-12-31T12:46:09.026Z,6.08
2018-12-31T12:48:36.120Z,6.80
2018-12-31T12:51:03.243Z,6.35
2018-12-31T12:53:30.333Z,6.33
2018-12-31T12:55:57.455Z,6.65
2018-12-31T12:58:24.556Z,5.45
2018-12-31T13:00:51.914Z,4.33
2018-12-31T13:03:19.021Z,5.78
2018-12-31T13:05:46.100Z,6.05
2018-12-31T13:08:13.199Z,5.87
2018-12-31T13:10:40.308Z,6.00
2018-12-31T13:13:07.448Z,6.22
2018-12-31T13:15:34.522Z,4.37
2018-12-31T13:18:01.696Z,4.40
2018-12-31T13:20:28.824Z,4.95
2018-12-31T13:22:56.174Z,4.33
2018-12-31T13:25:23.362Z,6.25
2018-12-31T13:27:50.495Z,5.75
2018-12-31T13:30:17.591Z,3.55
2018-12-31T13:32:44.703Z,5.45
2018-12-31T13:35:11.806Z,3.80
2018-12-31T13:37:38.896Z,3.35
2018-12-31T13:40:06.009Z,3.75
2018-12-31T13:42:33.438Z,3.10
2018-12-31T13:45:01.316Z,3.30
2018-12-31T13:47:28.424Z,2.35
2018-12-31T13:49:55.751Z,2.37
2018-12-31T13:52:22.881Z,3.80
2018-12-31T13:54:50.331Z,3.45
2018-12-31T13:57:17.520Z,2.95
2018-12-31T13:59:44.627Z,2.40
2018-12-31T14:02:12.151Z,2.95
2018-12-31T14:04:39.259Z,3.87
2018-12-31T14:07:06.450Z,3.90
2018-12-31T14:09:33.586Z,4.28
2018-12-31T14:12:00.690Z,4.10
2018-12-31T14:14:28.223Z,5.22
2018-12-31T14:16:55.344Z,5.30
2018-12-31T14:19:22.479Z,6.20
2018-12-31T14:21:49.594Z,4.30
2018-12-31T14:24:17.095Z,3.70
2018-12-31T14:26:44.190Z,4.80
2018-12-31T14:29:14.186Z,5.62
2018-12-31T14:31:41.308Z,3.85
2018-12-31T14:34:08.433Z,3.80
2018-12-31T14:36:35.548Z,3.60
2018-12-31T14:39:05.688Z,3.58
2018-12-31T14:41:32.880Z,3.33
2018-12-31T14:43:59.930Z,4.00
2018-12-31T14:46:27.041Z,3.65
2018-12-31T14:48:54.164Z,3.72
2018-12-31T14:51:21.591Z,4.45
2018-12-31T14:53:48.718Z,5.30
2018-12-31T14:56:15.863Z,5.67
2018-12-31T14:58:43.257Z,6.08
2018-12-31T15:01:10.401Z,6.67
2018-12-31T15:03:38.338Z,6.35
2018-12-31T15:06:05.690Z,7.85
2018-12-31T15:08:33.035Z,8.20
2018-12-31T15:11:01.436Z,7.90
2018-12-31T15:13:28.595Z,6.40
2018-12-31T15:15:55.958Z,7.20
2018-12-31T15:18:23.221Z,7.45
2018-12-31T15:20:50.339Z,7.08
2018-12-31T15:23:17.410Z,6.10
2018-12-31T15:25:44.550Z,6.17
2018-12-31T15:28:11.666Z,11.53
2018-12-31T15:30:38.793Z,11.05
2018-12-31T15:33:06.160Z,8.48
2018-12-31T15:35:34.348Z,7.30
2018-12-31T15:38:01.688Z,7.72
2018-12-31T15:40:28.797Z,6.10
2018-12-31T15:42:55.920Z,6.55
2018-12-31T15:45:23.015Z,5.67
2018-12-31T15:47:50.411Z,6.05
2018-12-31T15:50:17.539Z,6.00
2018-12-31T15:52:44.710Z,5.58
2018-12-31T15:55:11.837Z,5.35
2018-12-31T15:57:38.942Z,5.72
2018-12-31T16:00:07.962Z,6.90
2018-12-31T16:02:35.201Z,7.10
2018-12-31T16:05:02.313Z,9.38
2018-12-31T16:07:29.442Z,8.75
2018-12-31T16:09:56.555Z,7.45
2018-12-31T16:12:23.672Z,6.45
2018-12-31T16:14:50.770Z,10.38
2018-12-31T16:17:17.878Z,8.65
2018-12-31T16:19:45.277Z,11.00
2018-12-31T16:22:12.350Z,13.30
2018-12-31T16:24:39.453Z,12.95
2018-12-31T16:27:06.548Z,9.40
2018-12-31T16:29:33.636Z,9.18
2018-12-31T16:32:00.999Z,9.00
2018-12-31T16:34:29.244Z,8.90
2018-12-31T16:36:56.476Z,9.95
2018-12-31T16:39:23.553Z,14.15
2018-12-31T16:41:50.613Z,27.62
2018-12-31T16:44:18.126Z,24.70
2018-12-31T16:46:45.216Z,20.43
2018-12-31T16:49:12.350Z,17.77
2018-12-31T16:51:39.434Z,16.87
2018-12-31T16:54:06.831Z,13.28
2018-12-31T16:56:33.931Z,10.25
2018-12-31T16:59:01.398Z,10.35
2018-12-31T17:01:28.477Z,12.00
2018-12-31T17:03:55.570Z,12.82
2018-12-31T17:06:22.630Z,13.38
2018-12-31T17:08:49.740Z,14.23
2018-12-31T17:11:16.827Z,12.58
2018-12-31T17:13:43.883Z,13.20
2018-12-31T17:16:10.937Z,10.13
2018-12-31T17:18:38.039Z,9.28
2018-12-31T17:21:05.131Z,8.80
2018-12-31T17:23:32.209Z,8.63
2018-12-31T17:25:59.265Z,13.10
2018-12-31T17:28:26.649Z,14.45
2018-12-31T17:30:53.760Z,9.80
2018-12-31T17:33:20.841Z,11.15
2018-12-31T17:35:47.902Z,10.70
2018-12-31T17:38:15.040Z,10.38
2018-12-31T17:40:42.103Z,10.60
2018-12-31T17:43:09.507Z,9.78
2018-12-31T17:45:36.567Z,10.03
2018-12-31T17:48:03.632Z,8.65
2018-12-31T17:50:30.716Z,9.98
2018-12-31T17:52:57.777Z,10.50
2018-12-31T17:55:24.837Z,12.33
2018-12-31T17:57:52.078Z,10.90
2018-12-31T18:00:19.142Z,11.08
2018-12-31T18:02:46.195Z,9.53
2018-12-31T18:05:13.255Z,10.68
2018-12-31T18:07:40.309Z,9.08
2018-12-31T18:10:08.268Z,9.85
2018-12-31T18:12:35.609Z,9.25
2018-12-31T18:15:02.640Z,9.93
2018-12-31T18:17:29.714Z,8.50
2018-12-31T18:19:56.762Z,8.90
2018-12-31T18:22:23.822Z,9.48
2018-12-31T18:24:50.872Z,8.48
2018-12-31T18:27:18.122Z,8.63
2018-12-31T18:29:45.169Z,9.95
2018-12-31T18:32:12.220Z,8.55
2018-12-31T18:34:39.256Z,9.95
2018-12-31T18:37:06.310Z,9.60
2018-12-31T18:39:33.743Z,8.78
2018-12-31T18:42:00.812Z,9.28
2018-12-31T18:44:27.880Z,8.95
2018-12-31T18:46:54.901Z,8.03
2018-12-31T18:49:21.971Z,7.85
2018-12-31T18:51:49.138Z,8.48
2018-12-31T18:54:16.155Z,9.28
2018-12-31T18:56:43.296Z,8.88
2018-12-31T18:59:10.343Z,9.23
2018-12-31T19:01:37.375Z,8.30
2018-12-31T19:04:04.430Z,8.18
2018-12-31T19:06:31.483Z,7.08
2018-12-31T19:08:58.554Z,7.40
2018-12-31T19:11:25.608Z,8.30
2018-12-31T19:13:52.634Z,6.33
2018-12-31T19:16:19.662Z,6.78
2018-12-31T19:18:46.740Z,6.70
2018-12-31T19:21:13.775Z,6.85
2018-12-31T19:23:40.846Z,7.33
2018-12-31T19:26:08.093Z,6.92
2018-12-31T19:28:35.138Z,6.95
2018-12-31T19:31:02.409Z,7.67
2018-12-31T19:33:29.450Z,7.22
2018-12-31T19:35:56.507Z,6.90
2018-12-31T19:38:23.539Z,6.92
2018-12-31T19:40:50.792Z,6.95
2018-12-31T19:43:17.847Z,7.08
2018-12-31T19:45:44.907Z,6.62
2018-12-31T19:48:11.950Z,7.58
2018-12-31T19:50:39.001Z,7.35
2018-12-31T19:53:06.078Z,7.95
2018-12-31T19:55:41.633Z,8.03
2018-12-31T19:58:08.781Z,6.85
2018-12-31T20:00:35.833Z,7.10
2018-12-31T20:03:02.887Z,8.68
2018-12-31T20:05:29.928Z,7.40
2018-12-31T20:07:57.613Z,8.20
2018-12-31T20:10:24.627Z,7.37
2018-12-31T20:12:51.662Z,8.10
2018-12-31T20:15:18.714Z,8.33
2018-12-31T20:17:45.753Z,7.60
2018-12-31T20:20:12.803Z,7.15
2018-12-31T20:22:40.158Z,7.40
2018-12-31T20:25:07.185Z,7.67
2018-12-31T20:27:34.291Z,8.30
2018-12-31T20:30:01.359Z,8.83
2018-12-31T20:32:28.393Z,7.10
2018-12-31T20:34:55.436Z,7.72
2018-12-31T20:37:22.464Z,7.53
2018-12-31T20:39:49.710Z,7.75
2018-12-31T20:42:16.752Z,8.00
2018-12-31T20:44:43.777Z,7.58
2018-12-31T20:47:10.814Z,8.68
2018-12-31T20:49:37.882Z,8.23
2018-12-31T20:52:04.939Z,7.22
2018-12-31T20:54:32.000Z,8.88
2018-12-31T20:56:59.096Z,7.70
2018-12-31T20:59:26.114Z,9.03
2018-12-31T21:01:53.792Z,8.65
2018-12-31T21:04:20.887Z,7.53
2018-12-31T21:06:47.918Z,7.65
2018-12-31T21:09:14.944Z,8.05
2018-12-31T21:11:41.990Z,7.78
2018-12-31T21:14:09.025Z,9.00
2018-12-31T21:16:36.064Z,8.23
2018-12-31T21:19:03.096Z,8.43
2018-12-31T21:21:30.137Z,8.00
2018-12-31T21:23:57.188Z,8.80
2018-12-31T21:26:24.239Z,9.35
2018-12-31T21:28:51.275Z,8.75
2018-12-31T21:31:18.307Z,8.95
2018-12-31T21:33:45.330Z,11.05
2018-12-31T21:36:12.369Z,11.05
2018-12-31T21:38:39.421Z,11.00
2018-12-31T21:41:06.656Z,10.03
2018-12-31T21:43:33.696Z,10.75
2018-12-31T21:46:00.730Z,11.57
2018-12-31T21:48:27.778Z,11.60
2018-12-31T21:50:54.847Z,11.75
2018-12-31T21:53:21.895Z,11.88
2018-12-31T21:55:49.238Z,11.80
2018-12-31T21:58:16.265Z,12.53
2018-12-31T22:00:43.294Z,13.95
2018-12-31T22:03:10.353Z,13.45
2018-12-31T22:05:37.383Z,13.35
2018-12-31T22:08:04.411Z,12.43
2018-12-31T22:10:31.746Z,12.95
2018-12-31T22:12:58.780Z,18.62
2018-12-31T22:15:25.810Z,16.27
2018-12-31T22:17:52.882Z,14.38
2018-12-31T22:20:19.911Z,15.20
2018-12-31T22:22:46.978Z,15.90
2018-12-31T22:25:14.010Z,15.63
2018-12-31T22:27:41.050Z,15.32
2018-12-31T22:30:08.851Z,13.35
2018-12-31T22:32:35.915Z,17.77
2018-12-31T22:35:02.944Z,16.05
2018-12-31T22:37:29.973Z,14.90
2018-12-31T22:39:57.006Z,15.63
2018-12-31T22:42:24.034Z,16.42
2018-12-31T22:44:51.100Z,17.75
2018-12-31T22:47:18.128Z,16.45
2018-12-31T22:49:45.193Z,17.52
2018-12-31T22:52:12.246Z,20.48
2018-12-31T22:54:39.590Z,22.70
2018-12-31T22:57:06.612Z,21.75
2018-12-31T22:59:33.639Z,26.50
2018-12-31T23:02:00.665Z,33.05
2018-12-31T23:04:27.699Z,144.43
2018-12-31T23:06:58.352Z,162.40
2018-12-31T23:09:25.578Z,182.32
2018-12-31T23:11:52.679Z,232.18
2018-12-31T23:14:19.730Z,206.40
2018-12-31T23:16:50.485Z,140.03
2018-12-31T23:19:17.534Z,146.47
2018-12-31T23:21:44.575Z,143.65
2018-12-31T23:24:11.603Z,109.42
2018-12-31T23:26:38.634Z,60.90
2018-12-31T23:29:05.675Z,42.73
2018-12-31T23:31:32.723Z,41.75
2018-12-31T23:34:00.249Z,34.43
2018-12-31T23:36:27.304Z,35.55
2018-12-31T23:38:54.353Z,35.60
2018-12-31T23:41:21.396Z,34.83
2018-12-31T23:43:48.452Z,33.45
2018-12-31T23:46:15.485Z,35.23
2018-12-31T23:48:42.507Z,35.88
2018-12-31T23:51:09.550Z,34.13
2018-12-31T23:53:36.591Z,27.15
2018-12-31T23:56:03.732Z,28.40
2018-12-31T23:58:30.763Z,27.10
